createdAt,value
2019-03-08T00:00:08.018Z,39.50
2019-03-08T00:02:40.940Z,39.50
2019-03-08T00:05:12.059Z,39.50
2019-03-08T00:07:42.993Z,39.60
2019-03-08T00:10:13.935Z,39.50
2019-03-08T00:12:45.389Z,40.10
2019-03-08T00:15:16.878Z,39.50
2019-03-08T00:17:47.610Z,39.50
2019-03-08T00:20:18.815Z,39.50
2019-03-08T00:22:50.265Z,39.60
2019-03-08T00:25:21.713Z,39.50
2019-03-08T00:27:52.269Z,39.50
2019-03-08T00:30:23.693Z,39.60
2019-03-08T00:32:54.041Z,39.60
2019-03-08T00:35:25.061Z,39.50
2019-03-08T00:37:56.514Z,39.50
2019-03-08T00:40:28.069Z,39.60
2019-03-08T00:42:58.982Z,39.50
2019-03-08T00:45:30.398Z,39.50
2019-03-08T00:48:01.397Z,39.60
2019-03-08T00:50:32.537Z,39.70
2019-03-08T00:53:03.942Z,39.50
2019-03-08T00:55:35.442Z,39.60
2019-03-08T00:58:06.890Z,39.60
2019-03-08T01:00:37.724Z,39.60
2019-03-08T01:03:09.106Z,39.50
2019-03-08T01:05:40.013Z,39.60
2019-03-08T01:08:11.465Z,39.60
2019-03-08T01:10:42.589Z,39.60
2019-03-08T01:13:13.758Z,39.60
2019-03-08T01:15:46.129Z,39.60
2019-03-08T01:18:17.273Z,39.60
2019-03-08T01:20:48.729Z,39.60
2019-03-08T01:23:19.553Z,39.60
2019-03-08T01:25:50.497Z,39.60
2019-03-08T01:28:21.673Z,39.60
2019-03-08T01:30:52.989Z,39.60
2019-03-08T01:33:24.133Z,39.60
2019-03-08T01:35:54.966Z,39.60
2019-03-08T01:38:26.101Z,39.60
2019-03-08T01:40:57.564Z,39.60
2019-03-08T01:43:28.655Z,39.60
2019-03-08T01:46:00.078Z,39.60
2019-03-08T01:48:30.988Z,39.60
2019-03-08T01:51:01.687Z,39.70
2019-03-08T01:53:32.356Z,39.60
2019-03-08T01:56:02.737Z,39.60
2019-03-08T01:58:33.419Z,39.60
2019-03-08T02:01:04.112Z,39.60
2019-03-08T02:03:34.600Z,39.60
2019-03-08T02:06:05.393Z,39.60
2019-03-08T02:08:35.838Z,39.60
2019-03-08T02:11:06.836Z,39.60
2019-03-08T02:13:37.517Z,39.70
2019-03-08T02:16:08.078Z,39.60
2019-03-08T02:18:38.542Z,39.60
2019-03-08T02:21:09.029Z,39.60
2019-03-08T02:23:39.944Z,39.60
2019-03-08T02:26:10.867Z,39.60
2019-03-08T02:28:42.533Z,39.60
2019-03-08T02:31:13.451Z,39.60
2019-03-08T02:33:44.211Z,39.70
2019-03-08T02:36:14.822Z,39.70
2019-03-08T02:38:45.574Z,39.70
2019-03-08T02:41:16.570Z,39.70
2019-03-08T02:43:47.547Z,39.70
2019-03-08T02:46:18.721Z,39.70
2019-03-08T02:48:50.761Z,39.70
2019-03-08T02:51:21.912Z,39.70
2019-03-08T02:53:53.046Z,39.70
2019-03-08T02:56:24.193Z,39.70
2019-03-08T02:58:55.449Z,39.70
2019-03-08T03:01:27.709Z,39.70
2019-03-08T03:03:58.850Z,39.70
2019-03-08T03:06:30.325Z,39.70
2019-03-08T03:09:01.775Z,39.70
2019-03-08T03:11:35.034Z,39.70
2019-03-08T03:14:06.453Z,39.60
2019-03-08T03:16:39.174Z,39.60
2019-03-08T03:19:10.013Z,40.10
2019-03-08T03:21:41.084Z,39.60
2019-03-08T03:24:11.917Z,39.80
2019-03-08T03:26:42.835Z,39.70
2019-03-08T03:29:14.278Z,39.70
2019-03-08T03:31:45.398Z,39.70
2019-03-08T03:34:16.565Z,39.70
2019-03-08T03:36:48.955Z,39.70
2019-03-08T03:39:20.083Z,39.70
2019-03-08T03:41:50.921Z,39.70
2019-03-08T03:44:21.785Z,39.70
2019-03-08T03:46:52.829Z,39.70
2019-03-08T03:49:23.538Z,39.70
2019-03-08T03:51:54.574Z,39.70
2019-03-08T03:54:26.025Z,39.70
2019-03-08T03:56:57.166Z,39.70
2019-03-08T03:59:28.310Z,39.70
2019-03-08T04:01:59.478Z,39.70
2019-03-08T04:04:30.832Z,39.70
2019-03-08T04:07:02.307Z,39.70
2019-03-08T04:09:33.208Z,39.70
2019-03-08T04:12:04.946Z,39.70
2019-03-08T04:14:36.094Z,39.70
2019-03-08T04:17:07.561Z,39.70
2019-03-08T04:19:39.017Z,39.80
2019-03-08T04:22:09.830Z,39.80
2019-03-08T04:24:41.284Z,39.70
2019-03-08T04:27:12.117Z,39.80
2019-03-08T04:29:43.261Z,39.80
2019-03-08T04:32:14.301Z,39.80
2019-03-08T04:34:47.317Z,39.80
2019-03-08T04:37:18.426Z,39.80
2019-03-08T04:39:49.688Z,39.80
2019-03-08T04:42:20.532Z,39.80
2019-03-08T04:44:51.936Z,39.80
2019-03-08T04:47:24.026Z,39.80
2019-03-08T04:49:55.176Z,39.80
2019-03-08T04:52:26.601Z,39.80
2019-03-08T04:54:58.712Z,39.80
2019-03-08T04:57:30.145Z,39.80
2019-03-08T05:00:01.289Z,39.80
2019-03-08T05:02:33.657Z,39.80
2019-03-08T05:05:05.731Z,39.80
2019-03-08T05:07:36.879Z,39.80
2019-03-08T05:10:09.167Z,39.80
2019-03-08T05:12:41.004Z,39.70
2019-03-08T05:15:13.331Z,39.70
2019-03-08T05:17:44.837Z,39.70
2019-03-08T05:20:15.967Z,39.70
2019-03-08T05:22:47.105Z,39.70
2019-03-08T05:25:19.174Z,39.70
2019-03-08T05:27:50.459Z,39.70
2019-03-08T05:30:21.149Z,39.70
2019-03-08T05:32:52.305Z,39.70
2019-03-08T05:35:23.433Z,39.70
2019-03-08T05:37:55.153Z,39.70
2019-03-08T05:40:26.347Z,39.70
2019-03-08T05:42:57.492Z,39.70
2019-03-08T05:45:28.274Z,39.70
2019-03-08T05:47:59.157Z,39.70
2019-03-08T05:50:30.610Z,39.70
2019-03-08T05:53:01.402Z,39.70
2019-03-08T05:55:32.825Z,39.70
2019-03-08T05:58:04.055Z,39.70
2019-03-08T06:00:35.505Z,39.70
2019-03-08T06:03:07.620Z,39.70
2019-03-08T06:05:39.001Z,39.80
2019-03-08T06:08:10.220Z,39.70
2019-03-08T06:10:41.566Z,39.70
2019-03-08T06:13:11.989Z,39.70
2019-03-08T06:15:43.258Z,39.70
2019-03-08T06:18:13.522Z,39.60
2019-03-08T06:20:44.698Z,39.60
2019-03-08T06:23:15.037Z,39.60
2019-03-08T06:25:46.322Z,39.70
2019-03-08T06:28:17.340Z,39.70
2019-03-08T06:30:48.352Z,39.70
2019-03-08T06:33:18.989Z,39.70
2019-03-08T06:35:50.039Z,39.70
2019-03-08T06:38:20.443Z,39.60
2019-03-08T06:40:51.078Z,39.60
2019-03-08T06:43:22.229Z,39.60
2019-03-08T06:45:53.676Z,39.60
2019-03-08T06:48:24.911Z,39.60
2019-03-08T06:50:55.962Z,39.50
2019-03-08T06:53:27.724Z,39.50
2019-03-08T06:55:58.477Z,39.50
2019-03-08T06:58:38.790Z,39.50
2019-03-08T07:01:12.825Z,39.50
2019-03-08T07:03:43.665Z,39.50
2019-03-08T07:06:14.814Z,39.50
2019-03-08T07:08:45.762Z,39.50
2019-03-08T07:11:17.010Z,39.60
2019-03-08T07:13:48.141Z,39.60
2019-03-08T07:16:20.445Z,39.40
2019-03-08T07:18:51.836Z,39.40
2019-03-08T07:21:40.379Z,39.40
2019-03-08T07:24:21.277Z,39.30
2019-03-08T07:27:10.546Z,39.40
2019-03-08T07:30:03.108Z,39.40
2019-03-08T07:32:46.837Z,39.30
2019-03-08T07:35:29.545Z,39.40
2019-03-08T07:38:25.475Z,39.40
2019-03-08T07:41:21.685Z,39.30
2019-03-08T07:44:10.769Z,39.30
2019-03-08T07:47:03.722Z,39.30
2019-03-08T07:49:59.805Z,39.30
2019-03-08T07:52:35.900Z,39.30
2019-03-08T07:55:13.407Z,39.30
2019-03-08T07:58:02.744Z,39.20
2019-03-08T08:00:51.329Z,39.30
2019-03-08T08:03:42.086Z,39.10
2019-03-08T08:06:26.794Z,39.20
2019-03-08T08:09:14.685Z,38.10
2019-03-08T08:12:09.939Z,38.30
2019-03-08T08:15:11.225Z,37.80
2019-03-08T08:18:03.221Z,37.80
2019-03-08T08:20:49.820Z,38.00
2019-03-08T08:23:39.606Z,37.40
2019-03-08T08:26:18.487Z,37.90
2019-03-08T08:29:08.621Z,37.60
2019-03-08T08:32:02.614Z,38.80
2019-03-08T08:34:58.835Z,39.30
2019-03-08T08:37:51.179Z,39.20
2019-03-08T08:40:38.602Z,39.20
2019-03-08T08:43:31.249Z,39.10
2019-03-08T08:46:11.296Z,39.00
2019-03-08T08:48:57.817Z,38.80
2019-03-08T08:51:42.155Z,38.40
2019-03-08T08:54:28.965Z,38.40
2019-03-08T08:57:11.531Z,38.40
2019-03-08T09:00:00.330Z,38.30
2019-03-08T09:02:53.265Z,38.30
2019-03-08T09:05:43.225Z,38.20
2019-03-08T09:08:30.986Z,38.10
2019-03-08T09:11:27.042Z,37.70
2019-03-08T09:14:03.798Z,37.70
2019-03-08T09:16:46.833Z,37.40
2019-03-08T09:19:48.593Z,37.50
2019-03-08T09:22:36.854Z,37.30
2019-03-08T09:25:22.788Z,37.20
2019-03-08T09:28:18.958Z,37.00
2019-03-08T09:31:11.034Z,36.90
2019-03-08T09:34:07.035Z,36.90
2019-03-08T09:36:59.274Z,36.80
2019-03-08T09:39:48.002Z,36.70
2019-03-08T09:42:45.373Z,36.90
2019-03-08T09:45:33.313Z,36.90
2019-03-08T09:48:25.265Z,36.70
2019-03-08T09:51:06.426Z,36.60
2019-03-08T09:54:10.927Z,36.60
2019-03-08T09:56:48.870Z,36.50
2019-03-08T09:59:34.896Z,36.50
2019-03-08T10:02:12.780Z,36.30
2019-03-08T10:05:11.385Z,36.30
2019-03-08T10:07:52.505Z,36.20
2019-03-08T10:10:50.747Z,36.20
2019-03-08T10:13:33.513Z,36.20
2019-03-08T10:16:24.063Z,36.20
2019-03-08T10:19:03.439Z,36.00
2019-03-08T10:21:46.921Z,35.90
2019-03-08T10:24:49.045Z,36.10
2019-03-08T10:27:25.463Z,36.30
2019-03-08T10:30:23.578Z,36.20
2019-03-08T10:33:14.644Z,36.00
2019-03-08T10:36:12.258Z,36.10
2019-03-08T10:39:08.346Z,36.30
2019-03-08T10:42:07.393Z,36.20
2019-03-08T10:45:03.330Z,35.90
2019-03-08T10:47:42.266Z,35.70
2019-03-08T10:50:26.482Z,35.90
2019-03-08T10:53:14.941Z,35.70
2019-03-08T10:55:59.651Z,35.60
2019-03-08T10:59:07.902Z,35.40
2019-03-08T11:02:03.398Z,35.10
2019-03-08T11:04:53.417Z,35.10
2019-03-08T11:07:40.162Z,35.20
2019-03-08T11:10:28.673Z,35.00
2019-03-08T11:13:18.631Z,34.80
2019-03-08T11:16:20.730Z,34.80
2019-03-08T11:19:10.383Z,34.60
2019-03-08T11:22:03.257Z,34.50
2019-03-08T11:25:07.739Z,34.40
2019-03-08T11:27:56.540Z,34.60
2019-03-08T11:30:53.761Z,34.60
2019-03-08T11:33:49.823Z,34.40
2019-03-08T11:36:45.186Z,34.40
2019-03-08T11:39:43.422Z,34.40
2019-03-08T11:42:39.494Z,34.40
2019-03-08T11:45:30.594Z,34.10
2019-03-08T11:48:21.050Z,34.00
2019-03-08T11:51:17.439Z,33.90
2019-03-08T11:54:07.220Z,34.10
2019-03-08T11:57:10.366Z,34.20
2019-03-08T11:59:53.174Z,34.20
2019-03-08T12:02:41.831Z,34.20
2019-03-08T12:05:39.886Z,34.90
2019-03-08T12:08:44.590Z,34.20
2019-03-08T12:11:27.212Z,33.90
2019-03-08T12:14:16.110Z,34.10
2019-03-08T12:17:20.445Z,34.10
2019-03-08T12:19:57.116Z,34.20
2019-03-08T12:22:40.294Z,34.00
2019-03-08T12:25:20.490Z,34.00
2019-03-08T12:28:10.778Z,34.10
2019-03-08T12:30:53.838Z,34.30
2019-03-08T12:33:35.650Z,34.50
2019-03-08T12:36:26.916Z,34.60
2019-03-08T12:39:19.602Z,34.90
2019-03-08T12:42:06.683Z,35.10
2019-03-08T12:44:44.901Z,35.30
2019-03-08T12:47:31.581Z,35.50
2019-03-08T12:50:25.270Z,35.50
2019-03-08T12:53:09.413Z,35.70
2019-03-08T12:55:49.979Z,35.80
2019-03-08T12:58:37.625Z,36.60
2019-03-08T13:01:34.050Z,35.90
2019-03-08T13:04:18.358Z,35.80
2019-03-08T13:06:59.296Z,35.80
2019-03-08T13:09:43.146Z,35.80
2019-03-08T13:12:14.790Z,35.80
2019-03-08T13:14:45.701Z,35.90
2019-03-08T13:17:16.747Z,35.90
2019-03-08T13:19:47.993Z,36.00
2019-03-08T13:22:19.154Z,36.00
2019-03-08T13:24:50.282Z,35.90
2019-03-08T13:27:22.042Z,36.10
2019-03-08T13:29:53.198Z,36.20
2019-03-08T13:32:24.309Z,36.30
2019-03-08T13:34:55.787Z,36.40
2019-03-08T13:37:27.251Z,36.40
2019-03-08T13:39:58.716Z,36.30
2019-03-08T13:42:30.162Z,36.30
2019-03-08T13:45:01.296Z,36.50
2019-03-08T13:47:32.417Z,36.20
2019-03-08T13:50:04.157Z,36.30
2019-03-08T13:52:35.323Z,36.20
2019-03-08T13:55:09.690Z,36.20
2019-03-08T13:57:41.330Z,36.20
2019-03-08T14:00:14.795Z,36.20
2019-03-08T14:02:45.639Z,36.20
2019-03-08T14:05:16.428Z,36.20
2019-03-08T14:07:48.017Z,36.20
2019-03-08T14:10:18.709Z,36.30
2019-03-08T14:12:49.694Z,36.30
2019-03-08T14:15:20.392Z,36.40
2019-03-08T14:17:51.199Z,36.50
2019-03-08T14:20:22.171Z,36.50
2019-03-08T14:22:54.152Z,36.50
2019-03-08T14:25:24.980Z,36.60
2019-03-08T14:27:55.487Z,36.60
2019-03-08T14:30:27.404Z,36.70
2019-03-08T14:33:01.593Z,36.70
2019-03-08T14:35:31.011Z,36.80
2019-03-08T14:38:01.743Z,37.00
2019-03-08T14:40:53.370Z,36.90
2019-03-08T14:43:28.078Z,36.90
2019-03-08T14:46:09.589Z,37.30
2019-03-08T14:48:42.594Z,37.20
2019-03-08T14:51:14.450Z,37.20
2019-03-08T14:53:45.777Z,37.20
2019-03-08T14:56:17.246Z,37.20
2019-03-08T14:58:48.402Z,37.10
2019-03-08T15:01:19.514Z,37.10
2019-03-08T15:03:50.966Z,37.20
2019-03-08T15:06:21.638Z,37.20
2019-03-08T15:08:56.484Z,37.60
2019-03-08T15:11:28.544Z,37.60
2019-03-08T15:13:59.185Z,37.90
2019-03-08T15:16:29.648Z,38.00
2019-03-08T15:19:03.738Z,38.10
2019-03-08T15:21:36.753Z,38.10
2019-03-08T15:24:05.871Z,38.10
2019-03-08T15:26:36.380Z,38.10
2019-03-08T15:29:07.324Z,38.20
2019-03-08T15:31:37.766Z,38.20
2019-03-08T15:34:08.644Z,38.20
2019-03-08T15:36:38.980Z,38.20
2019-03-08T15:39:09.690Z,38.20
2019-03-08T15:41:40.321Z,38.30
2019-03-08T15:44:10.874Z,38.30
2019-03-08T15:46:42.188Z,38.20
2019-03-08T15:49:13.691Z,38.20
2019-03-08T15:51:44.137Z,38.20
2019-03-08T15:54:15.530Z,38.20
2019-03-08T15:56:45.966Z,38.10
2019-03-08T15:59:16.995Z,38.00
2019-03-08T16:01:47.446Z,38.00
2019-03-08T16:04:19.086Z,37.90
2019-03-08T16:06:50.423Z,37.90
2019-03-08T16:09:22.188Z,37.80
2019-03-08T16:11:53.427Z,37.80
2019-03-08T16:14:24.618Z,37.80
2019-03-08T16:16:56.174Z,38.40
2019-03-08T16:19:27.364Z,37.70
2019-03-08T16:21:58.812Z,37.70
2019-03-08T16:24:31.063Z,37.70
2019-03-08T16:27:03.593Z,37.70
2019-03-08T16:29:35.765Z,37.60
2019-03-08T16:32:11.124Z,37.70
2019-03-08T16:34:41.776Z,37.60
2019-03-08T16:37:26.561Z,37.60
2019-03-08T16:40:15.637Z,37.60
2019-03-08T16:43:09.055Z,37.60
2019-03-08T16:45:54.840Z,37.60
2019-03-08T16:48:32.171Z,37.60
2019-03-08T16:51:19.557Z,37.80
2019-03-08T16:54:21.070Z,37.70
2019-03-08T16:57:00.816Z,37.70
2019-03-08T16:59:38.455Z,37.80
2019-03-08T17:02:27.012Z,37.70
2019-03-08T17:05:21.597Z,37.70
2019-03-08T17:08:07.950Z,37.70
2019-03-08T17:11:03.018Z,37.70
2019-03-08T17:13:41.261Z,37.70
2019-03-08T17:16:29.490Z,37.70
2019-03-08T17:19:19.929Z,37.70
2019-03-08T17:22:09.754Z,37.80
2019-03-08T17:24:59.565Z,37.80
2019-03-08T17:27:53.145Z,37.70
2019-03-08T17:30:34.954Z,37.80
2019-03-08T17:33:27.894Z,38.00
2019-03-08T17:36:21.280Z,38.20
2019-03-08T17:39:03.386Z,38.20
2019-03-08T17:42:03.288Z,38.10
2019-03-08T17:44:51.890Z,38.00
2019-03-08T17:47:41.799Z,38.00
2019-03-08T17:50:38.141Z,38.00
2019-03-08T17:53:31.394Z,38.00
2019-03-08T17:56:21.323Z,37.90
2019-03-08T17:59:24.407Z,38.10
2019-03-08T18:02:23.180Z,38.20
2019-03-08T18:05:04.372Z,38.30
2019-03-08T18:08:13.066Z,38.20
2019-03-08T18:11:02.646Z,38.10
2019-03-08T18:13:42.582Z,38.10
2019-03-08T18:16:36.010Z,38.20
2019-03-08T18:19:15.304Z,38.20
2019-03-08T18:21:54.739Z,38.30
2019-03-08T18:24:44.970Z,38.20
2019-03-08T18:27:34.269Z,38.20
2019-03-08T18:30:17.994Z,38.20
2019-03-08T18:33:05.859Z,38.20
2019-03-08T18:35:54.451Z,38.40
2019-03-08T18:38:42.629Z,38.60
2019-03-08T18:41:34.536Z,38.60
2019-03-08T18:44:33.354Z,38.70
2019-03-08T18:47:23.859Z,38.80
2019-03-08T18:50:19.990Z,38.90
2019-03-08T18:53:12.995Z,38.70
2019-03-08T18:56:04.936Z,38.60
2019-03-08T18:58:58.197Z,38.40
2019-03-08T19:01:50.512Z,38.20
2019-03-08T19:04:40.163Z,37.90
2019-03-08T19:07:31.011Z,37.60
2019-03-08T19:10:27.943Z,37.40
2019-03-08T19:13:05.790Z,37.50
2019-03-08T19:15:55.384Z,37.60
2019-03-08T19:18:43.123Z,37.60
2019-03-08T19:21:35.491Z,37.60
2019-03-08T19:24:20.351Z,37.70
2019-03-08T19:27:10.293Z,37.70
2019-03-08T19:30:00.311Z,37.80
2019-03-08T19:32:47.521Z,37.80
2019-03-08T19:35:30.959Z,37.80
2019-03-08T19:38:14.375Z,37.80
2019-03-08T19:40:55.144Z,37.90
2019-03-08T19:43:33.246Z,37.90
2019-03-08T19:46:23.893Z,37.90
2019-03-08T19:49:13.642Z,37.90
2019-03-08T19:52:03.990Z,38.00
2019-03-08T19:55:04.024Z,38.00
2019-03-08T19:58:03.448Z,38.00
2019-03-08T20:01:06.929Z,38.20
2019-03-08T20:03:57.786Z,38.70
2019-03-08T20:06:56.932Z,39.10
2019-03-08T20:09:45.679Z,38.90
2019-03-08T20:12:46.189Z,38.70
2019-03-08T20:15:44.175Z,39.20
2019-03-08T20:18:41.642Z,39.00
2019-03-08T20:21:28.580Z,38.90
2019-03-08T20:24:25.062Z,38.80
2019-03-08T20:27:06.955Z,38.70
2019-03-08T20:29:51.001Z,38.70
2019-03-08T20:32:40.674Z,38.60
2019-03-08T20:35:19.427Z,38.60
2019-03-08T20:37:57.083Z,38.60
2019-03-08T20:40:46.878Z,38.60
2019-03-08T20:43:36.531Z,38.60
2019-03-08T20:46:24.462Z,38.50
2019-03-08T20:48:56.260Z,38.50
2019-03-08T20:51:27.501Z,38.50
2019-03-08T20:53:57.807Z,38.50
2019-03-08T20:56:29.069Z,38.50
2019-03-08T20:58:59.371Z,38.50
2019-03-08T21:01:30.864Z,38.50
2019-03-08T21:04:01.411Z,38.50
2019-03-08T21:06:32.428Z,38.50
2019-03-08T21:09:02.836Z,38.50
2019-03-08T21:11:36.142Z,38.50
2019-03-08T21:14:07.421Z,38.50
2019-03-08T21:16:38.201Z,39.20
2019-03-08T21:19:08.706Z,38.50
2019-03-08T21:21:39.165Z,38.40
2019-03-08T21:24:10.489Z,38.50
2019-03-08T21:26:41.163Z,38.40
2019-03-08T21:29:11.743Z,38.40
2019-03-08T21:31:44.698Z,38.40
2019-03-08T21:34:15.440Z,38.40
2019-03-08T21:36:46.559Z,38.40
2019-03-08T21:39:17.331Z,38.40
2019-03-08T21:41:48.732Z,38.40
2019-03-08T21:44:19.296Z,38.50
2019-03-08T21:46:51.510Z,38.40
2019-03-08T21:49:22.372Z,38.40
2019-03-08T21:51:53.564Z,38.40
2019-03-08T21:54:24.245Z,38.40
2019-03-08T21:56:55.225Z,38.40
2019-03-08T21:59:25.647Z,38.40
2019-03-08T22:01:56.472Z,38.50
2019-03-08T22:04:32.082Z,38.40
2019-03-08T22:07:03.331Z,38.40
2019-03-08T22:09:47.565Z,38.40
2019-03-08T22:12:18.674Z,38.40
2019-03-08T22:14:49.026Z,38.40
2019-03-08T22:17:20.341Z,38.50
2019-03-08T22:19:50.797Z,38.50
2019-03-08T22:22:21.487Z,38.50
2019-03-08T22:24:51.733Z,38.50
2019-03-08T22:27:22.821Z,38.50
2019-03-08T22:29:54.303Z,38.50
2019-03-08T22:32:25.411Z,38.50
2019-03-08T22:34:56.000Z,38.50
2019-03-08T22:37:27.226Z,38.50
2019-03-08T22:39:57.477Z,38.50
2019-03-08T22:42:28.713Z,38.60
2019-03-08T22:44:59.009Z,38.60
2019-03-08T22:47:30.076Z,38.60
2019-03-08T22:50:00.431Z,38.60
2019-03-08T22:52:31.762Z,38.60
2019-03-08T22:55:02.134Z,38.60
2019-03-08T22:57:33.013Z,38.50
2019-03-08T23:00:03.533Z,38.60
2019-03-08T23:02:36.313Z,38.50
2019-03-08T23:05:07.631Z,38.50
2019-03-08T23:07:38.608Z,38.60
2019-03-08T23:10:11.982Z,38.60
2019-03-08T23:12:43.059Z,38.60
2019-03-08T23:15:13.364Z,38.60
2019-03-08T23:17:44.722Z,38.60
2019-03-08T23:20:15.106Z,38.60
2019-03-08T23:22:46.385Z,38.60
2019-03-08T23:25:16.894Z,38.60
2019-03-08T23:27:53.135Z,38.60
2019-03-08T23:30:27.157Z,38.70
2019-03-08T23:32:58.238Z,38.60
2019-03-08T23:35:28.651Z,38.60
2019-03-08T23:38:00.317Z,38.60
2019-03-08T23:40:30.938Z,38.70
2019-03-08T23:43:01.681Z,38.60
2019-03-08T23:45:32.014Z,38.60
2019-03-08T23:48:03.370Z,38.70
2019-03-08T23:50:33.738Z,38.60
2019-03-08T23:53:04.761Z,38.60
2019-03-08T23:55:36.294Z,38.60
2019-03-08T23:58:07.318Z,38.60
